Time;durP1;ratioP1;P1;durP2;ratioP2;P2;SDS_P1;SDS_P2;PMS_P1;PMS_P2;Temp;Humidity;BMP_temperature;BMP_pressure;BME280_temperature;BME280_humidity;BME280_pressure;Samples;Min_cycle;Max_cycle;Signal;HPM_P1;HPM_P2
2022/01/10 00:00:57;;;;;;;;;;;;;;;;;;5015142;28;19959;-27
2022/01/10 00:03:24;;;;;;;;;;;;;;;;;;5015962;28;20218;-31
2022/01/10 00:05:50;;;;;;;;;;;;;;;;;;5016446;28;20393;-30
2022/01/10 00:08:16;;;;;;;;;;;;;;;;;;5015971;28;19921;-29
2022/01/10 00:10:42;;;;;;;;;;;;;;;;;;5014921;28;19970;-35
2022/01/10 00:13:08;;;;;;;;;;;;;;;;;;5015865;28;20337;-26
2022/01/10 00:15:34;;;;;;;;;;;;;;;;;;5015797;28;20308;-35
2022/01/10 00:18:00;;;;;;;;;;;;;;;;;;5015791;28;19921;-29
2022/01/10 00:20:26;;;;;;;;;;;;;;;;;;5015749;28;19971;-29
2022/01/10 00:22:52;;;;;;;;;;;;;;;;;;5015805;28;19914;-30
2022/01/10 00:25:18;;;;;;;;;;;;;;;;;;5015866;28;19917;-29
2022/01/10 00:27:44;;;;;;;;;;;;;;;;;;5015617;28;19909;-26
2022/01/10 00:30:10;;;;;;;;;;;;;;;;;;5016221;28;19909;-28
2022/01/10 00:32:36;;;;;;;;;;;;;;;;;;5015772;28;19913;-29
2022/01/10 00:35:02;;;;;;;;;;;;;;;;;;5015530;28;19913;-29
2022/01/10 00:37:28;;;;;;;;;;;;;;;;;;5015791;28;19916;-28
2022/01/10 00:39:54;;;;;;;;;;;;;;;;;;5015429;28;19952;-27
2022/01/10 00:42:20;;;;;;;;;;;;;;;;;;5015612;28;19913;-29
2022/01/10 00:44:51;;;;;;;;;;;;;;;;;;5015428;28;19925;-32
2022/01/10 00:47:17;;;;;;;;;;;;;;;;;;5015743;28;19913;-29
2022/01/10 00:49:43;;;;;;;;;;;;;;;;;;5015654;28;20264;-33
2022/01/10 00:52:09;;;;;;;;;;;;;;;;;;5015210;28;19956;-32
2022/01/10 00:54:35;;;;;;;;;;;;;;;;;;5015297;28;19914;-32
2022/01/10 00:57:01;;;;;;;;;;;;;;;;;;5013941;28;19932;-26
2022/01/10 00:59:27;;;;;;;;;;;;;;;;;;5015237;28;20308;-25
2022/01/10 01:01:53;;;;;;;;;;;;;;;;;;5015390;28;19964;-32
2022/01/10 01:04:19;;;;;;;;;;;;;;;;;;5015140;28;20260;-28
2022/01/10 01:06:45;;;;;;;;;;;;;;;;;;5015354;28;20008;-33
2022/01/10 01:09:15;;;;;;;;;;;;;;;;;;5015371;28;20221;-26
2022/01/10 01:14:38;;;;;;;;;;;;;;;;;;5015104;28;19960;-28
2022/01/10 01:20:21;;;;;;;;;;;;;;;;;;5006138;28;20000;-29
2022/01/10 01:25:32;;;;;;;;;;;;;;;;;;5015272;28;19982;-32
2022/01/10 01:27:58;;;;;;;;;;;;;;;;;;5015148;28;19945;-25
2022/01/10 01:30:24;;;;;;;;;;;;;;;;;;5015166;28;20264;-33
2022/01/10 01:32:50;;;;;;;;;;;;;;;;;;5013751;28;19929;-29
2022/01/10 01:35:16;;;;;;;;;;;;;;;;;;5015339;28;19917;-29
2022/01/10 01:37:42;;;;;;;;;;;;;;;;;;5014841;28;19917;-29
2022/01/10 01:40:10;;;;;;;;;;;;;;;;;;5014787;28;19914;-28
2022/01/10 01:42:41;;;;;;;;;;;;;;;;;;5014787;28;19952;-29
2022/01/10 01:45:07;;;;;;;;;;;;;;;;;;5013998;28;19983;-30
2022/01/10 01:47:33;;;;;;;;;;;;;;;;;;5015043;28;19940;-27
2022/01/10 01:49:59;;;;;;;;;;;;;;;;;;5014703;28;19913;-29
2022/01/10 01:52:25;;;;;;;;;;;;;;;;;;5014568;28;19920;-32
2022/01/10 01:54:51;;;;;;;;;;;;;;;;;;5014706;28;20268;-31
2022/01/10 01:57:17;;;;;;;;;;;;;;;;;;5014478;28;19928;-33
2022/01/10 01:59:43;;;;;;;;;;;;;;;;;;5014651;28;19910;-35
2022/01/10 02:02:09;;;;;;;;;;;;;;;;;;5014829;28;19940;-28
2022/01/10 02:04:36;;;;;;;;;;;;;;;;;;5014528;28;19914;-29
2022/01/10 02:07:02;;;;;;;;;;;;;;;;;;5014810;28;19910;-30
2022/01/10 02:09:28;;;;;;;;;;;;;;;;;;5016026;28;19913;-28
2022/01/10 02:11:54;;;;;;;;;;;;;;;;;;5018288;28;19971;-31
2022/01/10 02:14:20;;;;;;;;;;;;;;;;;;5018124;28;19920;-28
2022/01/10 02:16:53;;;;;;;;;;;;;;;;;;5018786;28;19964;-27
2022/01/10 02:19:19;;;;;;;;;;;;;;;;;;5018290;28;19914;-28
2022/01/10 02:21:45;;;;;;;;;;;;;;;;;;5018253;28;20257;-31
2022/01/10 02:24:11;;;;;;;;;;;;;;;;;;5017857;28;20351;-30
2022/01/10 02:26:39;;;;;;;;;;;;;;;;;;5018101;28;19917;-29
2022/01/10 02:29:05;;;;;;;;;;;;;;;;;;5018119;28;20256;-28
2022/01/10 02:31:33;;;;;;;;;;;;;;;;;;5017865;28;19919;-28
2022/01/10 02:34:00;;;;;;;;;;;;;;;;;;5017717;28;19913;-29
2022/01/10 02:36:27;;;;;;;;;;;;;;;;;;5017975;28;19914;-34
2022/01/10 02:38:53;;;;;;;;;;;;;;;;;;5017942;28;19910;-27
2022/01/10 02:41:19;;;;;;;;;;;;;;;;;;5017609;28;19952;-29
2022/01/10 02:43:45;;;;;;;;;;;;;;;;;;5017466;28;19910;-28
2022/01/10 02:46:11;;;;;;;;;;;;;;;;;;5017407;28;19922;-27
2022/01/10 02:48:37;;;;;;;;;;;;;;;;;;5017480;28;19914;-32
2022/01/10 02:51:02;;;;;;;;;;;;;;;;;;5017702;28;19909;-27
2022/01/10 02:53:28;;;;;;;;;;;;;;;;;;5017339;28;20352;-26
2022/01/10 02:55:54;;;;;;;;;;;;;;;;;;5017120;28;20004;-33
2022/01/10 02:58:20;;;;;;;;;;;;;;;;;;5017318;28;19945;-32
2022/01/10 03:00:46;;;;;;;;;;;;;;;;;;5017221;28;19921;-28
2022/01/10 03:03:12;;;;;;;;;;;;;;;;;;5016167;28;19971;-29
2022/01/10 03:05:38;;;;;;;;;;;;;;;;;;5017336;28;19917;-28
2022/01/10 03:08:04;;;;;;;;;;;;;;;;;;5017127;28;19910;-32
2022/01/10 03:10:30;;;;;;;;;;;;;;;;;;5016104;28;19927;-29
2022/01/10 03:12:56;;;;;;;;;;;;;;;;;;5016951;28;19945;-34
2022/01/10 03:15:23;;;;;;;;;;;;;;;;;;5016994;28;20277;-30
2022/01/10 03:17:49;;;;;;;;;;;;;;;;;;5017189;28;19909;-31
2022/01/10 03:20:15;;;;;;;;;;;;;;;;;;5016016;28;20319;-32
2022/01/10 03:22:41;;;;;;;;;;;;;;;;;;5016566;28;19922;-28
2022/01/10 03:25:07;;;;;;;;;;;;;;;;;;5016963;28;19917;-30
2022/01/10 03:27:33;;;;;;;;;;;;;;;;;;5016708;28;19909;-27
2022/01/10 03:29:59;;;;;;;;;;;;;;;;;;5015700;28;19914;-31
2022/01/10 03:32:25;;;;;;;;;;;;;;;;;;5016570;28;20000;-29
2022/01/10 03:34:51;;;;;;;;;;;;;;;;;;5016568;28;19914;-30
2022/01/10 03:37:17;;;;;;;;;;;;;;;;;;5016797;28;20013;-31
2022/01/10 03:39:43;;;;;;;;;;;;;;;;;;5016752;28;19913;-34
2022/01/10 03:42:09;;;;;;;;;;;;;;;;;;5016402;28;20333;-30
2022/01/10 03:44:35;;;;;;;;;;;;;;;;;;5016359;28;19913;-29
2022/01/10 03:47:02;;;;;;;;;;;;;;;;;;5016421;28;19988;-27
2022/01/10 03:49:28;;;;;;;;;;;;;;;;;;5016354;28;19917;-29
2022/01/10 03:51:54;;;;;;;;;;;;;;;;;;5016493;28;19935;-29
2022/01/10 03:54:20;;;;;;;;;;;;;;;;;;5016333;28;19913;-32
2022/01/10 03:56:48;;;;;;;;;;;;;;;;;;5015996;28;20265;-31
2022/01/10 03:59:13;;;;;;;;;;;;;;;;;;5016096;28;20393;-28
2022/01/10 04:01:40;;;;;;;;;;;;;;;;;;5016145;28;19952;-33
2022/01/10 04:04:06;;;;;;;;;;;;;;;;;;5015977;28;20349;-27
2022/01/10 04:06:32;;;;;;;;;;;;;;;;;;5015906;28;19918;-28
2022/01/10 04:08:58;;;;;;;;;;;;;;;;;;5016220;28;19928;-34
2022/01/10 04:11:24;;;;;;;;;;;;;;;;;;5015917;28;20329;-30
2022/01/10 04:13:50;;;;;;;;;;;;;;;;;;5015894;28;19909;-33
2022/01/10 04:16:16;;;;;;;;;;;;;;;;;;5016072;28;19968;-30
2022/01/10 04:18:42;;;;;;;;;;;;;;;;;;5015848;28;19917;-27
2022/01/10 04:21:08;;;;;;;;;;;;;;;;;;5015807;28;20387;-29
2022/01/10 04:23:34;;;;;;;;;;;;;;;;;;5015941;28;19913;-30
2022/01/10 04:26:00;;;;;;;;;;;;;;;;;;5015855;28;20244;-29
2022/01/10 04:28:26;;;;;;;;;;;;;;;;;;5015657;28;19924;-29
2022/01/10 04:30:52;;;;;;;;;;;;;;;;;;5015616;28;20241;-31
2022/01/10 04:33:19;;;;;;;;;;;;;;;;;;5015192;28;19972;-34
2022/01/10 04:35:45;;;;;;;;;;;;;;;;;;5015490;28;19944;-30
2022/01/10 04:38:11;;;;;;;;;;;;;;;;;;5015427;28;19917;-28
2022/01/10 04:40:37;;;;;;;;;;;;;;;;;;5015358;28;19917;-31
2022/01/10 04:43:03;;;;;;;;;;;;;;;;;;5015312;28;19914;-29
2022/01/10 04:45:29;;;;;;;;;;;;;;;;;;5015208;28;19924;-29
2022/01/10 04:47:55;;;;;;;;;;;;;;;;;;5015185;28;19913;-26
2022/01/10 04:52:47;;;;;;;;;;;;;;;;;;5015036;28;20349;-31
2022/01/10 04:55:13;;;;;;;;;;;;;;;;;;5015116;28;19917;-29
2022/01/10 04:57:39;;;;;;;;;;;;;;;;;;5015362;28;19948;-31
2022/01/10 05:00:05;;;;;;;;;;;;;;;;;;5014687;28;19920;-30
2022/01/10 05:02:31;;;;;;;;;;;;;;;;;;5437781;23;19976;-18
2022/01/10 05:04:57;;;;;;;;;;;;;;;;;;5014925;28;20016;-19
2022/01/10 05:07:23;;;;;;;;;;;;;;;;;;5015326;28;19968;-18
2022/01/10 05:09:49;;;;;;;;;;;;;;;;;;5014971;28;19913;-19
2022/01/10 05:12:15;;;;;;;;;;;;;;;;;;5014633;28;19964;-19
2022/01/10 05:14:41;;;;;;;;;;;;;;;;;;5013731;28;19953;-19
2022/01/10 05:17:07;;;;;;;;;;;;;;;;;;5014669;28;19925;-19
2022/01/10 05:19:33;;;;;;;;;;;;;;;;;;5015491;28;19948;-19
2022/01/10 05:21:59;;;;;;;;;;;;;;;;;;5014682;28;19928;-18
2022/01/10 05:24:25;;;;;;;;;;;;;;;;;;5014679;28;19913;-19
2022/01/10 05:26:51;;;;;;;;;;;;;;;;;;5014671;28;20255;-19
2022/01/10 05:29:17;;;;;;;;;;;;;;;;;;5014853;28;19913;-19
2022/01/10 05:31:44;;;;;;;;;;;;;;;;;;5014770;28;20356;-19
2022/01/10 05:34:10;;;;;;;;;;;;;;;;;;5014608;28;20003;-19
2022/01/10 05:36:36;;;;;;;;;;;;;;;;;;5014588;28;20019;-19
2022/01/10 05:39:02;;;;;;;;;;;;;;;;;;5014615;28;19917;-20
2022/01/10 05:41:28;;;;;;;;;;;;;;;;;;5015076;28;19913;-19
2022/01/10 05:43:55;;;;;;;;;;;;;;;;;;5015604;28;19913;-19
2022/01/10 05:46:22;;;;;;;;;;;;;;;;;;5018333;28;20320;-20
2022/01/10 05:48:51;;;;;;;;;;;;;;;;;;5018194;28;19913;-19
2022/01/10 05:51:17;;;;;;;;;;;;;;;;;;5018731;28;19944;-20
2022/01/10 05:53:43;;;;;;;;;;;;;;;;;;5018359;28;20283;-19
2022/01/10 05:56:09;;;;;;;;;;;;;;;;;;5018308;28;19940;-19
2022/01/10 05:58:35;;;;;;;;;;;;;;;;;;5017192;28;20379;-19
2022/01/10 06:01:01;;;;;;;;;;;;;;;;;;5018567;28;19910;-19
2022/01/10 06:03:27;;;;;;;;;;;;;;;;;;5017580;28;19932;-19
2022/01/10 06:05:53;;;;;;;;;;;;;;;;;;5017900;28;19921;-19
2022/01/10 06:08:19;;;;;;;;;;;;;;;;;;5016914;28;20233;-18
2022/01/10 06:10:45;;;;;;;;;;;;;;;;;;5017929;28;19917;-19
2022/01/10 06:13:11;;;;;;;;;;;;;;;;;;5017704;28;20255;-19
2022/01/10 06:15:38;;;;;;;;;;;;;;;;;;5018103;28;19913;-20
2022/01/10 06:18:04;;;;;;;;;;;;;;;;;;5018034;28;19913;-20
2022/01/10 06:20:30;;;;;;;;;;;;;;;;;;5017760;28;20371;-20
2022/01/10 06:22:56;;;;;;;;;;;;;;;;;;5017722;28;19917;-20
2022/01/10 06:25:22;;;;;;;;;;;;;;;;;;5017900;28;19922;-19
2022/01/10 06:27:48;;;;;;;;;;;;;;;;;;5017400;28;19920;-20
2022/01/10 06:30:14;;;;;;;;;;;;;;;;;;5017503;28;19924;-20
2022/01/10 06:32:40;;;;;;;;;;;;;;;;;;5017462;28;20317;-20
2022/01/10 06:35:06;;;;;;;;;;;;;;;;;;5017690;28;20247;-21
2022/01/10 06:37:32;;;;;;;;;;;;;;;;;;5017453;28;19996;-18
2022/01/10 06:39:58;;;;;;;;;;;;;;;;;;5017345;28;19914;-19
2022/01/10 06:42:24;;;;;;;;;;;;;;;;;;5017404;28;20301;-19
2022/01/10 06:44:50;;;;;;;;;;;;;;;;;;5017148;28;19914;-19
2022/01/10 06:47:16;;;;;;;;;;;;;;;;;;5017357;28;19920;-19
2022/01/10 06:49:42;;;;;;;;;;;;;;;;;;5017106;28;19920;-19
2022/01/10 06:52:08;;;;;;;;;;;;;;;;;;5016132;28;20217;-19
2022/01/10 06:54:34;;;;;;;;;;;;;;;;;;5017144;28;20263;-20
2022/01/10 06:57:00;;;;;;;;;;;;;;;;;;5017570;28;19909;-19
2022/01/10 06:59:26;;;;;;;;;;;;;;;;;;5017066;28;19952;-20
2022/01/10 07:01:52;;;;;;;;;;;;;;;;;;5016889;28;19909;-19
2022/01/10 07:04:18;;;;;;;;;;;;;;;;;;5016525;28;19922;-19
2022/01/10 07:06:44;;;;;;;;;;;;;;;;;;5017418;28;19913;-20
2022/01/10 07:09:10;;;;;;;;;;;;;;;;;;5017009;28;19913;-20
2022/01/10 07:11:36;;;;;;;;;;;;;;;;;;5016480;28;19916;-20
2022/01/10 07:14:02;;;;;;;;;;;;;;;;;;5016134;28;20456;-19
2022/01/10 07:16:28;;;;;;;;;;;;;;;;;;5016328;28;19921;-19
2022/01/10 07:18:54;;;;;;;;;;;;;;;;;;5016265;28;20344;-19
2022/01/10 07:21:20;;;;;;;;;;;;;;;;;;5016034;28;20340;-19
2022/01/10 07:23:48;;;;;;;;;;;;;;;;;;5016477;28;19936;-20
2022/01/10 07:26:14;;;;;;;;;;;;;;;;;;5015850;28;19917;-20
2022/01/10 07:28:40;;;;;;;;;;;;;;;;;;5015875;28;19921;-19
2022/01/10 07:31:06;;;;;;;;;;;;;;;;;;5015877;28;20252;-32
2022/01/10 07:33:32;;;;;;;;;;;;;;;;;;5015926;28;20028;-19
2022/01/10 07:35:58;;;;;;;;;;;;;;;;;;5016159;28;19909;-20
2022/01/10 07:38:24;;;;;;;;;;;;;;;;;;5015022;28;20004;-20
2022/01/10 07:40:50;;;;;;;;;;;;;;;;;;5016122;28;20001;-20
2022/01/10 07:43:16;;;;;;;;;;;;;;;;;;5015937;28;19924;-20
2022/01/10 07:45:42;;;;;;;;;;;;;;;;;;5016530;28;19913;-20
2022/01/10 07:48:11;;;;;;;;;;;;;;;;;;5016614;28;20012;-20
2022/01/10 07:50:37;;;;;;;;;;;;;;;;;;5016216;28;19921;-20
2022/01/10 07:53:03;;;;;;;;;;;;;;;;;;5015849;28;20416;-19
2022/01/10 07:55:29;;;;;;;;;;;;;;;;;;5015880;28;19945;-20
2022/01/10 07:57:55;;;;;;;;;;;;;;;;;;5016196;28;20008;-26
2022/01/10 08:00:21;;;;;;;;;;;;;;;;;;5016082;28;19913;-19
2022/01/10 08:02:47;;;;;;;;;;;;;;;;;;5015656;28;19932;-19
2022/01/10 08:05:13;;;;;;;;;;;;;;;;;;5016135;28;19929;-20
2022/01/10 08:07:39;;;;;;;;;;;;;;;;;;5013879;28;20032;-19
2022/01/10 08:10:05;;;;;;;;;;;;;;;;;;5014631;28;19910;-20
2022/01/10 08:12:31;;;;;;;;;;;;;;;;;;5015766;28;19913;-19
2022/01/10 08:14:57;;;;;;;;;;;;;;;;;;5015892;28;19917;-20
2022/01/10 08:17:24;;;;;;;;;;;;;;;;;;5015703;28;20012;-19
2022/01/10 08:19:50;;;;;;;;;;;;;;;;;;5015250;28;20000;-19
2022/01/10 08:22:16;;;;;;;;;;;;;;;;;;5015689;28;20058;-19
2022/01/10 08:24:42;;;;;;;;;;;;;;;;;;5015279;28;19913;-20
2022/01/10 08:27:08;;;;;;;;;;;;;;;;;;5015445;28;19913;-19
2022/01/10 08:29:34;;;;;;;;;;;;;;;;;;5015837;28;19964;-19
2022/01/10 08:32:00;;;;;;;;;;;;;;;;;;5015317;28;20336;-19
2022/01/10 08:34:26;;;;;;;;;;;;;;;;;;5014361;28;20008;-18
2022/01/10 08:36:52;;;;;;;;;;;;;;;;;;5015819;28;19944;-18
2022/01/10 08:39:18;;;;;;;;;;;;;;;;;;5015096;28;20402;-19
2022/01/10 08:41:44;;;;;;;;;;;;;;;;;;5015723;28;19910;-18
2022/01/10 08:44:10;;;;;;;;;;;;;;;;;;5015255;28;19913;-18
2022/01/10 08:46:36;;;;;;;;;;;;;;;;;;5015083;28;20004;-18
2022/01/10 08:49:02;;;;;;;;;;;;;;;;;;5015119;28;19913;-19
2022/01/10 08:51:29;;;;;;;;;;;;;;;;;;5014098;28;19944;-19
2022/01/10 08:53:55;;;;;;;;;;;;;;;;;;5014919;28;20411;-18
2022/01/10 08:56:21;;;;;;;;;;;;;;;;;;5014815;28;19909;-19
2022/01/10 08:58:47;;;;;;;;;;;;;;;;;;5015091;28;20055;-18
2022/01/10 09:01:14;;;;;;;;;;;;;;;;;;5013887;28;19917;-18
2022/01/10 09:03:40;;;;;;;;;;;;;;;;;;5014680;28;19929;-18
2022/01/10 09:06:06;;;;;;;;;;;;;;;;;;5015428;28;19913;-19
2022/01/10 09:08:32;;;;;;;;;;;;;;;;;;5015283;28;20362;-18
2022/01/10 09:10:59;;;;;;;;;;;;;;;;;;5015311;28;19913;-19
2022/01/10 09:13:25;;;;;;;;;;;;;;;;;;5014814;28;19921;-18
2022/01/10 09:15:51;;;;;;;;;;;;;;;;;;5014916;28;20096;-18
2022/01/10 09:18:17;;;;;;;;;;;;;;;;;;5016646;28;19924;-18
2022/01/10 09:20:43;;;;;;;;;;;;;;;;;;5019016;28;19913;-18
2022/01/10 09:23:12;;;;;;;;;;;;;;;;;;5017735;28;19914;-18
2022/01/10 09:25:38;;;;;;;;;;;;;;;;;;5017961;28;20008;-19
2022/01/10 09:28:04;;;;;;;;;;;;;;;;;;5019408;28;20291;-19
2022/01/10 09:30:31;;;;;;;;;;;;;;;;;;5017832;28;19955;-19
2022/01/10 09:32:57;;;;;;;;;;;;;;;;;;5018733;28;19956;-19
2022/01/10 09:35:23;;;;;;;;;;;;;;;;;;5017367;28;19929;-19
2022/01/10 09:37:49;;;;;;;;;;;;;;;;;;5018662;28;20301;-18
2022/01/10 09:40:16;;;;;;;;;;;;;;;;;;5017464;28;19941;-17
2022/01/10 09:42:42;;;;;;;;;;;;;;;;;;5018809;28;20281;-18
2022/01/10 09:45:09;;;;;;;;;;;;;;;;;;5019059;28;20252;-18
2022/01/10 09:50:27;;;;;;;;;;;;;;;;;;5018486;28;20020;-19
2022/01/10 09:52:53;;;;;;;;;;;;;;;;;;5017180;28;19945;-18
2022/01/10 09:55:19;;;;;;;;;;;;;;;;;;5018427;28;19913;-18
2022/01/10 09:57:45;;;;;;;;;;;;;;;;;;5017939;28;19910;-18
2022/01/10 10:00:11;;;;;;;;;;;;;;;;;;5018074;28;19910;-18
2022/01/10 10:02:40;;;;;;;;;;;;;;;;;;5017521;28;19929;-19
2022/01/10 10:05:07;;;;;;;;;;;;;;;;;;5017863;28;19921;-19
2022/01/10 10:07:35;;;;;;;;;;;;;;;;;;5018038;28;19940;-18
2022/01/10 10:10:03;;;;;;;;;;;;;;;;;;5017808;28;19909;-19
2022/01/10 10:12:29;;;;;;;;;;;;;;;;;;5017489;28;20000;-17
2022/01/10 10:14:56;;;;;;;;;;;;;;;;;;5017447;28;19917;-18
2022/01/10 10:17:23;;;;;;;;;;;;;;;;;;5017459;28;19913;-18
2022/01/10 10:19:49;;;;;;;;;;;;;;;;;;5016307;28;19913;-18
2022/01/10 10:22:15;;;;;;;;;;;;;;;;;;5017236;28;19919;-18
2022/01/10 10:24:41;;;;;;;;;;;;;;;;;;5016293;28;19925;-20
2022/01/10 10:27:08;;;;;;;;;;;;;;;;;;5017751;28;19980;-18
2022/01/10 10:29:35;;;;;;;;;;;;;;;;;;5015631;28;20008;-19
2022/01/10 10:32:02;;;;;;;;;;;;;;;;;;5017662;28;19920;-19
2022/01/10 10:34:29;;;;;;;;;;;;;;;;;;5017190;28;19913;-17
2022/01/10 10:36:55;;;;;;;;;;;;;;;;;;5016290;28;20340;-18
2022/01/10 10:39:21;;;;;;;;;;;;;;;;;;5017755;28;19920;-17
2022/01/10 10:41:47;;;;;;;;;;;;;;;;;;5016266;28;20051;-20
2022/01/10 10:44:13;;;;;;;;;;;;;;;;;;5017509;28;20212;-18
2022/01/10 10:46:39;;;;;;;;;;;;;;;;;;5017409;28;19918;-18
2022/01/10 10:49:05;;;;;;;;;;;;;;;;;;5017504;28;19945;-18
2022/01/10 10:51:32;;;;;;;;;;;;;;;;;;5017527;28;19924;-18
2022/01/10 10:53:58;;;;;;;;;;;;;;;;;;5017183;28;19921;-18
2022/01/10 10:56:24;;;;;;;;;;;;;;;;;;5017276;28;19940;-18
2022/01/10 10:58:50;;;;;;;;;;;;;;;;;;5017649;28;20004;-18
2022/01/10 11:01:16;;;;;;;;;;;;;;;;;;5017462;28;19909;-18
2022/01/10 11:03:42;;;;;;;;;;;;;;;;;;5016759;28;19925;-18
2022/01/10 11:06:10;;;;;;;;;;;;;;;;;;5016050;28;19967;-18
2022/01/10 11:08:39;;;;;;;;;;;;;;;;;;5017240;28;19913;-18
2022/01/10 11:11:05;;;;;;;;;;;;;;;;;;5017786;28;19996;-18
2022/01/10 11:13:31;;;;;;;;;;;;;;;;;;5016799;28;19964;-18
2022/01/10 11:15:58;;;;;;;;;;;;;;;;;;5015902;28;20023;-18
2022/01/10 11:18:24;;;;;;;;;;;;;;;;;;5017005;28;20357;-18
2022/01/10 11:20:50;;;;;;;;;;;;;;;;;;5017036;28;19920;-18
2022/01/10 11:23:16;;;;;;;;;;;;;;;;;;5016854;28;19924;-19
2022/01/10 11:25:42;;;;;;;;;;;;;;;;;;5016663;28;20410;-19
2022/01/10 11:28:09;;;;;;;;;;;;;;;;;;5017030;28;20257;-19
2022/01/10 11:30:36;;;;;;;;;;;;;;;;;;5017293;28;19936;-17
2022/01/10 11:33:03;;;;;;;;;;;;;;;;;;5016193;28;20248;-19
2022/01/10 11:35:29;;;;;;;;;;;;;;;;;;5016519;28;19921;-18
2022/01/10 11:37:56;;;;;;;;;;;;;;;;;;5016959;28;19928;-18
2022/01/10 11:40:22;;;;;;;;;;;;;;;;;;5016442;28;19922;-18
2022/01/10 11:42:50;;;;;;;;;;;;;;;;;;5015399;28;19913;-18
2022/01/10 11:45:17;;;;;;;;;;;;;;;;;;5016320;28;19967;-19
2022/01/10 11:47:43;;;;;;;;;;;;;;;;;;5016202;28;20105;-19
2022/01/10 11:50:10;;;;;;;;;;;;;;;;;;5016071;28;19913;-18
2022/01/10 11:52:38;;;;;;;;;;;;;;;;;;5016040;28;19910;-31
2022/01/10 11:55:07;;;;;;;;;;;;;;;;;;5016108;28;19979;-19
2022/01/10 11:57:33;;;;;;;;;;;;;;;;;;5016245;28;20276;-19
2022/01/10 12:00:01;;;;;;;;;;;;;;;;;;5015772;28;19920;-18
2022/01/10 12:02:28;;;;;;;;;;;;;;;;;;5015327;28;19921;-18
2022/01/10 12:04:57;;;;;;;;;;;;;;;;;;5015648;28;19913;-18
2022/01/10 12:07:23;;;;;;;;;;;;;;;;;;5015862;28;19951;-18
2022/01/10 12:09:49;;;;;;;;;;;;;;;;;;5015853;28;19913;-18
2022/01/10 12:12:16;;;;;;;;;;;;;;;;;;5015243;28;19944;-18
2022/01/10 12:14:42;;;;;;;;;;;;;;;;;;5015727;28;19913;-20
2022/01/10 12:17:08;;;;;;;;;;;;;;;;;;5015485;28;19917;-19
2022/01/10 12:19:34;;;;;;;;;;;;;;;;;;5015241;28;19957;-19
2022/01/10 12:22:01;;;;;;;;;;;;;;;;;;5014896;28;19913;-18
2022/01/10 12:24:27;;;;;;;;;;;;;;;;;;5014016;28;20051;-19
2022/01/10 12:26:53;;;;;;;;;;;;;;;;;;5014685;28;19949;-19
2022/01/10 12:29:22;;;;;;;;;;;;;;;;;;5015564;28;19909;-18
2022/01/10 12:31:48;;;;;;;;;;;;;;;;;;5015482;28;19917;-19
2022/01/10 12:34:14;;;;;;;;;;;;;;;;;;5015054;28;20210;-19
2022/01/10 12:36:40;;;;;;;;;;;;;;;;;;5014788;28;19913;-18
2022/01/10 12:39:09;;;;;;;;;;;;;;;;;;5015325;28;19958;-17
2022/01/10 12:41:35;;;;;;;;;;;;;;;;;;5014376;28;19957;-18
2022/01/10 12:44:01;;;;;;;;;;;;;;;;;;5014210;28;20241;-19
2022/01/10 12:46:31;;;;;;;;;;;;;;;;;;5015157;28;20318;-19
2022/01/10 12:48:58;;;;;;;;;;;;;;;;;;5015044;28;19988;-19
2022/01/10 12:51:24;;;;;;;;;;;;;;;;;;5015021;28;20016;-19
2022/01/10 12:53:51;;;;;;;;;;;;;;;;;;5015602;28;19936;-19
2022/01/10 12:56:17;;;;;;;;;;;;;;;;;;5015122;28;19986;-18
2022/01/10 12:58:44;;;;;;;;;;;;;;;;;;5014870;28;19930;-19
2022/01/10 13:01:10;;;;;;;;;;;;;;;;;;5014942;28;19944;-19
2022/01/10 13:03:36;;;;;;;;;;;;;;;;;;5014734;28;19921;-18
2022/01/10 13:06:02;;;;;;;;;;;;;;;;;;5014876;28;19928;-18
2022/01/10 13:08:31;;;;;;;;;;;;;;;;;;5014907;28;19979;-18
2022/01/10 13:10:57;;;;;;;;;;;;;;;;;;5014630;28;19952;-19
2022/01/10 13:13:23;;;;;;;;;;;;;;;;;;5014693;28;19927;-18
2022/01/10 13:15:51;;;;;;;;;;;;;;;;;;5015034;28;19928;-17
2022/01/10 13:18:19;;;;;;;;;;;;;;;;;;5015300;28;19913;-17
2022/01/10 13:20:45;;;;;;;;;;;;;;;;;;5014949;28;20344;-18
2022/01/10 13:23:12;;;;;;;;;;;;;;;;;;5014714;28;19910;-18
2022/01/10 13:25:39;;;;;;;;;;;;;;;;;;5014617;28;19996;-18
2022/01/10 13:28:07;;;;;;;;;;;;;;;;;;5014689;28;19992;-18
2022/01/10 13:30:35;;;;;;;;;;;;;;;;;;5014750;28;20325;-18
2022/01/10 13:33:01;;;;;;;;;;;;;;;;;;5013367;28;19910;-16
2022/01/10 13:35:42;;;;;;;;;;;;;;;;;;5014414;28;20352;-18
2022/01/10 13:38:13;;;;;;;;;;;;;;;;;;5014357;28;20310;-17
2022/01/10 13:40:39;;;;;;;;;;;;;;;;;;5014337;28;19925;-18
2022/01/10 13:43:07;;;;;;;;;;;;;;;;;;5014245;28;19933;-19
2022/01/10 13:45:39;;;;;;;;;;;;;;;;;;5014619;28;19926;-18
2022/01/10 13:48:05;;;;;;;;;;;;;;;;;;5014774;28;19913;-19
2022/01/10 13:50:31;;;;;;;;;;;;;;;;;;5014454;28;19978;-18
2022/01/10 13:52:58;;;;;;;;;;;;;;;;;;5014357;28;19910;-19
2022/01/10 13:55:24;;;;;;;;;;;;;;;;;;5014206;28;20263;-19
2022/01/10 13:57:54;;;;;;;;;;;;;;;;;;5014156;28;19931;-18
2022/01/10 14:00:24;;;;;;;;;;;;;;;;;;5014512;28;20237;-18
2022/01/10 14:02:51;;;;;;;;;;;;;;;;;;5013820;28;19952;-18
2022/01/10 14:05:17;;;;;;;;;;;;;;;;;;5015528;28;19980;-19
2022/01/10 14:07:43;;;;;;;;;;;;;;;;;;5018225;28;20237;-18
2022/01/10 14:10:09;;;;;;;;;;;;;;;;;;5018696;28;20012;-18
2022/01/10 14:12:35;;;;;;;;;;;;;;;;;;5018546;28;19909;-19
2022/01/10 14:15:01;;;;;;;;;;;;;;;;;;5018241;28;20300;-18
2022/01/10 14:17:27;;;;;;;;;;;;;;;;;;5018421;28;19964;-18
2022/01/10 14:19:56;;;;;;;;;;;;;;;;;;5017959;28;20502;-18
2022/01/10 14:22:22;;;;;;;;;;;;;;;;;;5016717;28;19909;-18
2022/01/10 14:24:48;;;;;;;;;;;;;;;;;;5017915;28;19958;-19
2022/01/10 14:27:14;;;;;;;;;;;;;;;;;;5017258;28;19971;-19
2022/01/10 14:29:41;;;;;;;;;;;;;;;;;;5017622;28;19920;-19
2022/01/10 14:32:08;;;;;;;;;;;;;;;;;;5017507;28;19910;-19
2022/01/10 14:34:34;;;;;;;;;;;;;;;;;;5018170;28;20078;-18
2022/01/10 14:37:00;;;;;;;;;;;;;;;;;;5017644;28;20251;-18
2022/01/10 14:39:27;;;;;;;;;;;;;;;;;;5017769;28;19972;-18
2022/01/10 14:41:53;;;;;;;;;;;;;;;;;;5017218;28;19932;-18
2022/01/10 14:44:19;;;;;;;;;;;;;;;;;;5017813;28;19925;-18
2022/01/10 14:46:46;;;;;;;;;;;;;;;;;;5017220;28;20360;-18
2022/01/10 14:49:12;;;;;;;;;;;;;;;;;;5017547;28;19952;-18
2022/01/10 14:51:38;;;;;;;;;;;;;;;;;;5017291;28;19914;-18
2022/01/10 14:54:04;;;;;;;;;;;;;;;;;;5017214;28;19966;-18
2022/01/10 14:56:30;;;;;;;;;;;;;;;;;;5017468;28;19913;-19
2022/01/10 14:58:57;;;;;;;;;;;;;;;;;;5017281;28;19996;-18
2022/01/10 15:01:23;;;;;;;;;;;;;;;;;;5015882;28;19996;-18
2022/01/10 15:03:49;;;;;;;;;;;;;;;;;;5016756;28;19922;-18
2022/01/10 15:06:15;;;;;;;;;;;;;;;;;;5016789;28;19982;-18
2022/01/10 15:08:42;;;;;;;;;;;;;;;;;;5015789;28;20264;-18
2022/01/10 15:11:08;;;;;;;;;;;;;;;;;;5016673;28;19985;-18
2022/01/10 15:13:34;;;;;;;;;;;;;;;;;;5017120;28;19960;-18
2022/01/10 15:16:01;;;;;;;;;;;;;;;;;;5016414;28;20368;-18
2022/01/10 15:18:27;;;;;;;;;;;;;;;;;;5016657;28;19917;-18
2022/01/10 15:20:53;;;;;;;;;;;;;;;;;;5015560;28;20000;-19
2022/01/10 15:23:19;;;;;;;;;;;;;;;;;;5016511;28;19920;-19
2022/01/10 15:25:45;;;;;;;;;;;;;;;;;;5017031;28;20060;-19
2022/01/10 15:28:11;;;;;;;;;;;;;;;;;;5017637;28;19910;-19
2022/01/10 15:30:37;;;;;;;;;;;;;;;;;;5016594;28;20035;-19
2022/01/10 15:33:03;;;;;;;;;;;;;;;;;;5016739;28;19917;-19
2022/01/10 15:35:29;;;;;;;;;;;;;;;;;;5016782;28;19910;-19
2022/01/10 15:37:56;;;;;;;;;;;;;;;;;;5017064;28;19995;-18
2022/01/10 15:40:22;;;;;;;;;;;;;;;;;;5016404;28;20004;-19
2022/01/10 15:42:48;;;;;;;;;;;;;;;;;;5016460;28;19944;-19
2022/01/10 15:45:14;;;;;;;;;;;;;;;;;;5016204;28;19917;-19
2022/01/10 15:47:41;;;;;;;;;;;;;;;;;;5016372;28;20261;-18
2022/01/10 15:50:11;;;;;;;;;;;;;;;;;;5016115;28;19914;-18
2022/01/10 15:52:37;;;;;;;;;;;;;;;;;;5015946;28;19933;-19
2022/01/10 15:55:03;;;;;;;;;;;;;;;;;;5016094;28;20004;-19
2022/01/10 15:57:29;;;;;;;;;;;;;;;;;;5015897;28;20001;-18
2022/01/10 15:59:55;;;;;;;;;;;;;;;;;;5016045;28;19913;-18
2022/01/10 16:02:21;;;;;;;;;;;;;;;;;;5015347;28;20000;-19
2022/01/10 16:04:47;;;;;;;;;;;;;;;;;;5015445;28;19991;-18
2022/01/10 16:07:13;;;;;;;;;;;;;;;;;;5015579;28;19922;-18
2022/01/10 16:09:39;;;;;;;;;;;;;;;;;;5015690;28;19968;-19
2022/01/10 16:12:05;;;;;;;;;;;;;;;;;;5014315;28;20303;-19
2022/01/10 16:14:31;;;;;;;;;;;;;;;;;;5014310;28;20256;-19
2022/01/10 16:17:01;;;;;;;;;;;;;;;;;;5015153;28;19916;-18
2022/01/10 16:19:27;;;;;;;;;;;;;;;;;;5015366;28;20258;-19
2022/01/10 16:21:53;;;;;;;;;;;;;;;;;;5015131;28;20317;-19
2022/01/10 16:24:19;;;;;;;;;;;;;;;;;;5015740;28;19924;-19
2022/01/10 16:26:45;;;;;;;;;;;;;;;;;;5015166;28;20344;-19
2022/01/10 16:29:11;;;;;;;;;;;;;;;;;;5014598;28;19922;-26
2022/01/10 16:31:38;;;;;;;;;;;;;;;;;;5015626;28;19909;-19
2022/01/10 16:34:04;;;;;;;;;;;;;;;;;;5015145;28;19925;-19
2022/01/10 16:36:30;;;;;;;;;;;;;;;;;;5015260;28;19941;-19
2022/01/10 16:38:56;;;;;;;;;;;;;;;;;;5015357;28;19909;-19
2022/01/10 16:41:22;;;;;;;;;;;;;;;;;;5015133;28;20411;-19
2022/01/10 16:43:48;;;;;;;;;;;;;;;;;;5015564;28;19913;-18
2022/01/10 16:46:14;;;;;;;;;;;;;;;;;;5015066;28;20375;-18
2022/01/10 16:48:40;;;;;;;;;;;;;;;;;;5015344;28;19910;-18
2022/01/10 16:51:06;;;;;;;;;;;;;;;;;;5015088;28;19944;-18
2022/01/10 16:53:32;;;;;;;;;;;;;;;;;;5014973;28;19914;-18